createdAt,value
2023-01-03T00:02:15.949Z,2.83
2023-01-03T00:04:48.961Z,2.90
2023-01-03T00:07:33.968Z,2.60
2023-01-03T00:10:06.688Z,2.07
2023-01-03T00:12:35.046Z,2.63
2023-01-03T00:15:02.433Z,2.20
2023-01-03T00:17:29.857Z,2.60
2023-01-03T00:19:57.334Z,1.30
2023-01-03T00:22:24.678Z,4.33
2023-01-03T00:24:53.333Z,1.87
2023-01-03T00:27:20.743Z,2.63
2023-01-03T00:29:48.303Z,2.67
2023-01-03T00:32:15.890Z,2.30
2023-01-03T00:34:44.665Z,1.97
2023-01-03T00:37:12.334Z,1.97
2023-01-03T00:39:39.780Z,1.23
2023-01-03T00:42:07.365Z,2.87
2023-01-03T00:44:34.839Z,3.07
2023-01-03T00:47:02.529Z,2.67
2023-01-03T00:49:29.933Z,1.67
2023-01-03T00:51:57.901Z,2.33
2023-01-03T00:54:25.325Z,3.13
2023-01-03T00:56:53.927Z,1.20
2023-01-03T00:59:22.112Z,1.43
2023-01-03T01:01:51.273Z,3.77
2023-01-03T01:04:23.151Z,4.07
2023-01-03T01:06:52.321Z,2.53
2023-01-03T01:09:21.242Z,1.20
2023-01-03T01:11:49.076Z,2.77
2023-01-03T01:14:20.508Z,3.07
2023-01-03T01:16:50.684Z,3.83
2023-01-03T01:19:18.641Z,2.50
2023-01-03T01:21:46.194Z,2.10
2023-01-03T01:24:17.776Z,2.33
2023-01-03T01:26:46.272Z,4.13
2023-01-03T01:29:14.312Z,3.80
2023-01-03T01:31:42.168Z,3.90
2023-01-03T01:34:09.656Z,3.87
2023-01-03T01:36:38.003Z,3.77
2023-01-03T01:39:06.456Z,3.37
2023-01-03T01:41:53.937Z,4.40
2023-01-03T01:44:40.255Z,1.93
2023-01-03T01:47:12.456Z,1.80
2023-01-03T01:49:39.845Z,2.73
2023-01-03T01:52:07.595Z,3.97
2023-01-03T01:54:35.074Z,3.37
2023-01-03T01:57:05.164Z,2.93
2023-01-03T01:59:33.104Z,4.13
2023-01-03T02:02:00.544Z,2.80
2023-01-03T02:04:29.996Z,2.63
2023-01-03T02:06:58.214Z,3.03
2023-01-03T02:09:25.549Z,2.47
2023-01-03T02:12:16.233Z,4.47
2023-01-03T02:15:02.614Z,4.37
2023-01-03T02:17:47.969Z,3.70
2023-01-03T02:20:21.424Z,2.63
2023-01-03T02:22:48.787Z,2.63
2023-01-03T02:25:25.726Z,3.27
2023-01-03T02:28:08.421Z,3.63
2023-01-03T02:30:38.974Z,3.13
2023-01-03T02:33:15.916Z,2.73
2023-01-03T02:36:12.427Z,3.30
2023-01-03T02:38:48.432Z,2.63
2023-01-03T02:41:28.089Z,4.57
2023-01-03T02:44:07.599Z,3.23
2023-01-03T02:46:38.071Z,3.90
2023-01-03T02:49:12.704Z,3.53
2023-01-03T02:51:48.165Z,3.70
2023-01-03T02:54:18.292Z,3.87
2023-01-03T02:56:48.583Z,3.83
2023-01-03T02:59:17.108Z,4.03
2023-01-03T03:01:45.365Z,4.10
2023-01-03T03:04:14.420Z,4.80
2023-01-03T03:06:57.536Z,3.43
2023-01-03T03:09:25.036Z,3.40
2023-01-03T03:12:13.114Z,4.83
2023-01-03T03:14:43.732Z,4.37
2023-01-03T03:17:16.641Z,5.87
2023-01-03T03:20:06.503Z,4.40
2023-01-03T03:23:14.050Z,4.23
2023-01-03T03:25:46.612Z,4.57
2023-01-03T03:28:33.875Z,3.83
2023-01-03T03:31:04.448Z,5.03
2023-01-03T03:33:34.223Z,3.93
2023-01-03T03:36:06.651Z,4.10
2023-01-03T03:38:43.178Z,3.93
2023-01-03T03:41:39.113Z,3.67
2023-01-03T03:44:40.781Z,4.33
2023-01-03T03:47:14.488Z,3.23
2023-01-03T03:49:42.933Z,3.73
2023-01-03T03:52:15.655Z,4.37
2023-01-03T03:54:45.777Z,5.33
2023-01-03T03:57:16.156Z,3.50
2023-01-03T03:59:46.912Z,4.33
2023-01-03T04:02:15.890Z,4.07
2023-01-03T04:04:45.360Z,3.47
2023-01-03T04:07:12.823Z,3.87
2023-01-03T04:09:40.185Z,3.40
2023-01-03T04:22:34.465Z,5.33
2023-01-03T04:25:01.945Z,4.50
2023-01-03T04:27:29.528Z,5.17
2023-01-03T04:29:57.161Z,4.10
2023-01-03T04:32:24.634Z,4.40
2023-01-03T04:34:52.211Z,4.50
2023-01-03T04:37:19.770Z,5.07
2023-01-03T04:39:47.241Z,5.80
2023-01-03T04:42:33.307Z,4.33
2023-01-03T04:45:00.907Z,4.97
2023-01-03T04:47:28.475Z,4.57
2023-01-03T04:49:55.990Z,5.30
2023-01-03T04:52:23.554Z,5.77
2023-01-03T04:54:51.035Z,6.90
2023-01-03T04:57:18.531Z,4.60
2023-01-03T04:59:46.060Z,3.70
2023-01-03T05:02:13.668Z,4.73
2023-01-03T05:04:41.401Z,4.40
2023-01-03T05:07:09.011Z,4.23
2023-01-03T05:09:36.451Z,3.83
2023-01-03T05:12:04.004Z,4.43
2023-01-03T05:14:31.527Z,5.20
2023-01-03T05:16:59.077Z,4.93
2023-01-03T05:19:26.946Z,5.20
2023-01-03T05:22:13.257Z,4.20
2023-01-03T05:24:59.423Z,3.40
2023-01-03T05:27:27.619Z,4.87
2023-01-03T05:29:56.143Z,3.93
2023-01-03T05:32:25.222Z,3.73
2023-01-03T05:34:52.717Z,3.73
2023-01-03T05:37:20.237Z,3.23
2023-01-03T05:39:48.957Z,3.03
2023-01-03T05:42:16.442Z,3.57
2023-01-03T05:44:43.905Z,4.60
2023-01-03T05:47:11.417Z,2.87
2023-01-03T05:49:38.973Z,3.50
2023-01-03T05:52:06.679Z,4.83
2023-01-03T05:54:34.166Z,4.23
2023-01-03T05:57:01.675Z,3.40
2023-01-03T05:59:29.216Z,3.63
2023-01-03T06:01:56.863Z,2.87
2023-01-03T06:04:24.537Z,3.90
2023-01-03T06:06:52.097Z,3.73
2023-01-03T06:09:19.660Z,2.40
2023-01-03T06:11:47.214Z,2.90
2023-01-03T06:14:14.724Z,3.23
2023-01-03T06:17:01.015Z,2.47
2023-01-03T06:19:28.628Z,3.50
2023-01-03T06:21:56.060Z,4.70
2023-01-03T06:24:23.589Z,4.70
2023-01-03T06:26:51.058Z,3.97
2023-01-03T06:29:18.594Z,4.67
2023-01-03T06:31:46.058Z,4.27
2023-01-03T06:34:15.548Z,3.07
2023-01-03T06:36:43.062Z,4.00
2023-01-03T06:39:10.549Z,3.33
2023-01-03T06:41:38.148Z,4.23
2023-01-03T06:44:05.703Z,3.80
2023-01-03T06:46:51.755Z,3.90
2023-01-03T06:49:38.196Z,3.77
2023-01-03T06:52:31.555Z,4.90
2023-01-03T06:54:59.135Z,3.83
2023-01-03T06:57:27.535Z,2.77
2023-01-03T06:59:55.646Z,4.03
2023-01-03T07:02:23.419Z,4.07
2023-01-03T07:04:51.184Z,4.23
2023-01-03T07:07:18.757Z,3.53
2023-01-03T07:09:46.211Z,4.73
2023-01-03T07:12:32.135Z,5.27
2023-01-03T07:14:59.673Z,4.13
2023-01-03T07:17:27.183Z,5.67
2023-01-03T07:19:54.726Z,4.23
2023-01-03T07:22:22.389Z,6.27
2023-01-03T07:24:49.902Z,5.90
2023-01-03T07:27:17.386Z,4.00
2023-01-03T07:29:44.818Z,4.63
2023-01-03T07:32:12.376Z,3.93
2023-01-03T07:34:39.828Z,4.83
2023-01-03T07:37:07.308Z,4.13
2023-01-03T07:39:34.838Z,5.00
2023-01-03T07:42:21.198Z,4.57
2023-01-03T07:44:48.700Z,4.47
2023-01-03T07:47:16.255Z,2.97
2023-01-03T07:49:43.748Z,2.90
2023-01-03T07:52:12.008Z,5.03
2023-01-03T07:54:39.566Z,3.20
2023-01-03T07:57:07.022Z,4.47
2023-01-03T07:59:34.521Z,4.07
2023-01-03T08:02:02.126Z,4.23
2023-01-03T08:04:29.879Z,6.00
2023-01-03T08:06:58.261Z,4.17
2023-01-03T08:09:44.487Z,3.60
2023-01-03T08:12:30.772Z,3.87
2023-01-03T08:14:58.286Z,2.70
2023-01-03T08:17:25.862Z,4.60
2023-01-03T08:19:53.335Z,5.80
2023-01-03T08:22:20.847Z,4.07
2023-01-03T08:24:48.319Z,5.97
2023-01-03T08:27:15.859Z,3.87
2023-01-03T08:29:43.948Z,4.30
2023-01-03T08:32:11.556Z,4.53
2023-01-03T08:34:42.174Z,8.13
2023-01-03T08:37:11.160Z,4.37
2023-01-03T08:39:42.370Z,5.10
2023-01-03T08:42:10.804Z,6.43
2023-01-03T08:44:39.375Z,4.40
2023-01-03T08:47:08.810Z,4.40
2023-01-03T08:49:36.397Z,5.10
2023-01-03T08:52:04.343Z,5.27
2023-01-03T08:54:32.188Z,4.27
2023-01-03T08:56:59.695Z,7.13
2023-01-03T08:59:27.256Z,5.30
2023-01-03T09:01:58.434Z,4.30
2023-01-03T09:04:26.138Z,5.33
2023-01-03T09:06:53.678Z,4.93
2023-01-03T09:09:21.292Z,6.13
2023-01-03T09:11:48.786Z,5.27
2023-01-03T09:14:16.451Z,5.73
2023-01-03T09:16:48.723Z,6.07
2023-01-03T09:19:17.114Z,8.40
2023-01-03T09:21:44.607Z,7.67
2023-01-03T09:24:12.162Z,8.17
2023-01-03T09:26:39.718Z,7.80
2023-01-03T09:29:07.385Z,8.37
2023-01-03T09:31:35.571Z,7.87
2023-01-03T09:34:05.375Z,9.13
2023-01-03T09:36:34.878Z,8.33
2023-01-03T09:39:02.370Z,7.77
2023-01-03T09:41:29.981Z,6.83
2023-01-03T09:44:05.383Z,7.37
2023-01-03T09:46:33.388Z,6.83
2023-01-03T09:49:01.339Z,7.03
2023-01-03T09:52:16.314Z,6.23
2023-01-03T09:55:02.346Z,7.13
2023-01-03T09:57:50.123Z,7.07
2023-01-03T10:00:36.639Z,6.57
2023-01-03T10:03:30.111Z,7.50
2023-01-03T10:06:10.055Z,6.23
2023-01-03T10:08:40.738Z,7.57
2023-01-03T10:11:30.995Z,7.00
2023-01-03T10:14:01.517Z,7.30
2023-01-03T10:16:49.335Z,7.20
2023-01-03T10:19:17.283Z,8.17
2023-01-03T10:21:45.065Z,6.97
2023-01-03T10:24:19.319Z,7.17
2023-01-03T10:26:51.205Z,6.60
2023-01-03T10:29:19.029Z,3.23
2023-01-03T10:31:55.571Z,6.83
2023-01-03T10:34:23.196Z,6.93
2023-01-03T10:36:50.722Z,1.97
2023-01-03T10:39:29.318Z,4.80
2023-01-03T10:41:58.703Z,6.10
2023-01-03T10:44:27.337Z,6.37
2023-01-03T10:46:56.724Z,5.50
2023-01-03T10:49:30.905Z,6.53
2023-01-03T10:52:01.453Z,6.80
2023-01-03T10:54:48.889Z,6.80
2023-01-03T10:57:40.223Z,6.93
2023-01-03T11:00:28.213Z,6.50
2023-01-03T11:02:56.975Z,6.87
2023-01-03T11:05:25.789Z,6.20
2023-01-03T11:07:57.389Z,5.93
2023-01-03T11:10:25.528Z,5.87
2023-01-03T11:12:53.148Z,6.87
2023-01-03T11:15:24.982Z,6.67
2023-01-03T11:17:55.623Z,5.33
2023-01-03T11:20:26.029Z,6.67
2023-01-03T11:22:57.491Z,5.77
2023-01-03T11:25:31.065Z,6.10
2023-01-03T11:28:11.943Z,5.03
2023-01-03T11:30:55.075Z,5.37
2023-01-03T11:33:37.166Z,6.00
2023-01-03T11:36:07.831Z,6.73
2023-01-03T11:38:41.253Z,6.27
2023-01-03T11:41:34.438Z,6.57
2023-01-03T11:44:10.818Z,5.30
2023-01-03T11:46:41.609Z,5.47
2023-01-03T11:49:21.760Z,15.57
2023-01-03T11:52:07.954Z,5.47
2023-01-03T11:54:41.363Z,7.20
2023-01-03T11:57:20.884Z,4.93
2023-01-03T12:00:03.744Z,4.50
2023-01-03T12:02:45.034Z,5.33
2023-01-03T12:05:12.609Z,4.97
2023-01-03T12:07:49.179Z,3.90
2023-01-03T12:10:16.682Z,6.17
2023-01-03T12:12:46.953Z,4.77
2023-01-03T12:15:25.725Z,5.80
2023-01-03T12:17:56.082Z,4.30
2023-01-03T12:20:40.525Z,4.43
2023-01-03T12:23:20.766Z,5.47
2023-01-03T12:25:51.237Z,4.00
2023-01-03T12:28:25.820Z,5.23
2023-01-03T12:31:05.994Z,5.07
2023-01-03T12:33:33.543Z,4.87
2023-01-03T12:36:10.416Z,4.60
2023-01-03T12:38:43.331Z,4.30
2023-01-03T12:41:18.048Z,34.60
2023-01-03T12:44:05.750Z,9.83
2023-01-03T12:46:35.437Z,8.63
2023-01-03T12:49:12.106Z,6.47
2023-01-03T12:51:39.623Z,6.10
2023-01-03T12:54:10.207Z,5.63
2023-01-03T12:56:48.298Z,5.67
2023-01-03T12:59:36.905Z,5.70
2023-01-03T13:02:17.906Z,8.00
2023-01-03T13:04:46.241Z,6.00
2023-01-03T13:07:16.501Z,5.53
2023-01-03T13:09:50.075Z,5.83
2023-01-03T13:12:20.052Z,7.23
2023-01-03T13:14:55.340Z,8.73
2023-01-03T13:17:26.816Z,6.17
2023-01-03T13:19:59.221Z,6.50
2023-01-03T13:22:46.204Z,8.57
2023-01-03T13:25:33.846Z,5.07
2023-01-03T13:28:04.565Z,5.00
2023-01-03T13:30:33.478Z,8.07
2023-01-03T13:33:06.877Z,6.73
2023-01-03T13:35:38.300Z,5.27
2023-01-03T13:38:25.245Z,6.17
2023-01-03T13:43:44.949Z,6.93
2023-01-03T13:46:23.575Z,3.97
2023-01-03T13:48:56.125Z,5.17
2023-01-03T13:51:23.708Z,5.07
2023-01-03T13:53:53.950Z,5.53
2023-01-03T13:56:25.020Z,5.60
2023-01-03T13:58:54.219Z,3.97
2023-01-03T14:01:39.750Z,6.03
2023-01-03T14:04:08.370Z,5.80
2023-01-03T14:06:42.138Z,4.37
2023-01-03T14:09:18.784Z,4.93
2023-01-03T14:11:46.417Z,5.23
2023-01-03T14:14:15.639Z,5.27
2023-01-03T14:16:53.012Z,4.17
2023-01-03T14:19:23.009Z,4.67
2023-01-03T14:22:14.218Z,5.50
2023-01-03T14:24:51.869Z,5.00
2023-01-03T14:27:20.839Z,4.97
2023-01-03T14:29:50.735Z,5.63
2023-01-03T14:32:37.431Z,5.33
2023-01-03T14:35:05.212Z,4.57
2023-01-03T14:37:35.046Z,5.23
2023-01-03T14:40:06.895Z,4.33
2023-01-03T14:42:34.499Z,4.37
2023-01-03T14:45:03.048Z,5.27
2023-01-03T14:47:39.216Z,4.33
2023-01-03T14:50:08.285Z,4.03
2023-01-03T14:52:36.700Z,4.17
2023-01-03T14:55:07.286Z,4.07
2023-01-03T14:57:39.036Z,5.67
2023-01-03T15:00:07.761Z,4.63
2023-01-03T15:02:38.473Z,3.63
2023-01-03T15:05:17.837Z,4.90
2023-01-03T15:07:45.632Z,5.73
2023-01-03T15:10:13.290Z,6.23
2023-01-03T15:12:43.884Z,5.60
2023-01-03T15:15:22.368Z,4.63
2023-01-03T15:17:52.347Z,4.33
2023-01-03T15:20:21.890Z,3.43
2023-01-03T15:22:49.598Z,5.53
2023-01-03T15:25:19.513Z,3.27
2023-01-03T15:27:48.740Z,3.60
2023-01-03T15:30:25.180Z,3.93
2023-01-03T15:32:56.025Z,5.07
2023-01-03T15:35:40.832Z,3.97
2023-01-03T15:38:28.679Z,6.30
2023-01-03T15:40:56.290Z,5.07
2023-01-03T15:43:27.373Z,4.57
2023-01-03T15:46:02.314Z,12.47
2023-01-03T15:48:35.376Z,8.73
2023-01-03T15:51:03.529Z,8.13
2023-01-03T15:53:43.787Z,9.27
2023-01-03T15:56:21.111Z,6.20
2023-01-03T15:58:50.284Z,4.40
2023-01-03T16:01:18.533Z,3.93
2023-01-03T16:03:47.431Z,5.20
2023-01-03T16:06:16.471Z,3.17
2023-01-03T16:08:44.380Z,4.80
2023-01-03T16:11:28.060Z,3.20
2023-01-03T16:14:00.272Z,3.43
2023-01-03T16:16:39.150Z,6.20
2023-01-03T16:19:07.201Z,3.60
2023-01-03T16:21:34.893Z,4.20
2023-01-03T16:24:02.974Z,3.87
2023-01-03T16:26:30.542Z,4.90
2023-01-03T16:28:59.487Z,3.90
2023-01-03T16:31:31.627Z,4.40
2023-01-03T16:33:59.261Z,4.53
2023-01-03T16:36:38.260Z,4.63
2023-01-03T16:39:26.022Z,5.23
2023-01-03T16:42:13.047Z,6.03
2023-01-03T16:44:41.780Z,5.83
2023-01-03T16:47:15.461Z,5.67
2023-01-03T16:49:44.461Z,4.63
2023-01-03T16:52:16.423Z,6.37
2023-01-03T16:54:44.538Z,4.23
2023-01-03T16:57:17.747Z,5.43
2023-01-03T16:59:46.165Z,5.40
2023-01-03T17:02:14.205Z,4.73
2023-01-03T17:04:42.351Z,4.67
2023-01-03T17:07:17.653Z,3.73
2023-01-03T17:09:47.074Z,5.63
2023-01-03T17:12:15.825Z,6.23
2023-01-03T17:14:43.417Z,4.33
2023-01-03T17:17:21.631Z,5.97
2023-01-03T17:20:06.212Z,4.60
2023-01-03T17:22:34.261Z,5.30
2023-01-03T17:25:01.825Z,5.90
2023-01-03T17:27:33.024Z,4.53
2023-01-03T17:30:02.999Z,5.73
2023-01-03T17:32:30.827Z,5.90
2023-01-03T17:34:58.781Z,4.63
2023-01-03T17:37:26.587Z,5.53
2023-01-03T17:39:56.053Z,5.17
2023-01-03T17:42:24.449Z,6.20
2023-01-03T17:45:10.988Z,4.67
2023-01-03T17:47:58.546Z,5.40
2023-01-03T17:50:26.467Z,5.20
2023-01-03T17:52:56.234Z,5.70
2023-01-03T17:55:25.487Z,4.80
2023-01-03T17:57:53.447Z,5.77
2023-01-03T18:00:22.749Z,6.70
2023-01-03T18:02:50.849Z,5.40
2023-01-03T18:05:27.132Z,5.10
2023-01-03T18:07:59.421Z,5.23
2023-01-03T18:10:43.493Z,4.90
2023-01-03T18:13:20.009Z,5.23
2023-01-03T18:15:47.517Z,5.03
2023-01-03T18:18:16.370Z,6.57
2023-01-03T18:20:44.064Z,7.10
2023-01-03T18:23:17.987Z,5.83
2023-01-03T18:25:46.040Z,7.00
2023-01-03T18:28:14.661Z,6.53
2023-01-03T18:30:42.174Z,6.77
2023-01-03T18:33:10.176Z,5.53
2023-01-03T18:35:38.465Z,9.00
2023-01-03T18:38:06.273Z,7.00
2023-01-03T18:40:33.842Z,7.20
2023-01-03T18:43:13.040Z,6.40
2023-01-03T18:45:41.830Z,7.57
2023-01-03T18:48:13.521Z,6.43
2023-01-03T18:50:41.257Z,6.40
2023-01-03T18:53:11.791Z,7.77
2023-01-03T18:55:39.455Z,9.03
2023-01-03T18:58:19.212Z,6.83
2023-01-03T19:00:46.843Z,6.57
2023-01-03T19:03:24.485Z,7.80
2023-01-03T19:05:54.162Z,8.30
2023-01-03T19:08:22.676Z,6.43
2023-01-03T19:10:50.328Z,7.53
2023-01-03T19:13:54.703Z,6.63
2023-01-03T19:16:24.033Z,7.93
2023-01-03T19:18:51.787Z,6.70
2023-01-03T19:21:20.614Z,7.50
2023-01-03T19:23:57.999Z,6.73
2023-01-03T19:26:28.859Z,7.10
2023-01-03T19:28:58.847Z,8.30
2023-01-03T19:31:31.155Z,6.73
2023-01-03T19:33:58.634Z,7.97
2023-01-03T19:36:26.131Z,7.83
2023-01-03T19:38:53.660Z,7.60
2023-01-03T19:41:21.998Z,8.87
2023-01-03T19:43:50.246Z,7.57
2023-01-03T19:46:18.558Z,8.57
2023-01-03T19:48:46.161Z,9.90
2023-01-03T19:51:14.019Z,8.23
2023-01-03T19:53:42.627Z,8.53
2023-01-03T19:56:20.810Z,8.83
2023-01-03T19:58:48.788Z,9.27
2023-01-03T20:01:17.471Z,8.80
2023-01-03T20:03:45.675Z,8.70
2023-01-03T20:06:15.195Z,8.13
2023-01-03T20:08:42.777Z,8.40
2023-01-03T20:11:14.082Z,8.17
2023-01-03T20:13:41.616Z,8.37
2023-01-03T20:16:10.951Z,9.97
2023-01-03T20:18:40.212Z,8.80
2023-01-03T20:21:12.451Z,9.17
2023-01-03T20:23:42.986Z,9.23
2023-01-03T20:26:18.373Z,8.07
2023-01-03T20:28:46.157Z,7.90
2023-01-03T20:31:19.966Z,9.77
2023-01-03T20:33:48.443Z,8.77
2023-01-03T20:36:23.053Z,7.93
2023-01-03T20:38:52.008Z,8.40
2023-01-03T20:41:19.775Z,7.93
2023-01-03T20:43:49.014Z,8.40
2023-01-03T20:46:20.779Z,8.57
2023-01-03T20:48:56.116Z,8.57
2023-01-03T20:51:24.645Z,8.40
2023-01-03T20:53:55.049Z,8.67
2023-01-03T20:56:23.553Z,9.53
2023-01-03T20:58:51.097Z,8.77
2023-01-03T21:01:18.666Z,8.40
2023-01-03T21:03:46.333Z,8.53
2023-01-03T21:06:18.477Z,9.47
2023-01-03T21:08:55.351Z,8.43
2023-01-03T21:11:27.013Z,9.80
2023-01-03T21:13:54.921Z,8.63
2023-01-03T21:16:22.442Z,9.60
2023-01-03T21:18:49.977Z,10.70
2023-01-03T21:21:21.354Z,8.53
2023-01-03T21:23:49.006Z,9.97
2023-01-03T21:26:16.520Z,9.70
2023-01-03T21:28:44.057Z,8.10
2023-01-03T21:31:17.122Z,8.50
2023-01-03T21:33:44.696Z,8.63
2023-01-03T21:36:17.602Z,8.13
2023-01-03T21:38:48.693Z,10.60
2023-01-03T21:41:17.683Z,10.27
2023-01-03T21:43:45.549Z,8.50
2023-01-03T21:46:16.647Z,9.07
2023-01-03T21:48:44.608Z,8.57
2023-01-03T21:51:13.104Z,8.10
2023-01-03T21:53:42.476Z,8.93
2023-01-03T21:56:19.803Z,9.77
2023-01-03T21:58:47.383Z,8.30
2023-01-03T22:01:19.454Z,7.63
2023-01-03T22:04:05.873Z,9.80
2023-01-03T22:06:33.385Z,8.67
2023-01-03T22:09:01.404Z,8.93
2023-01-03T22:11:29.206Z,8.47
2023-01-03T22:13:58.021Z,8.40
2023-01-03T22:16:25.665Z,9.40
2023-01-03T22:18:53.258Z,8.77
2023-01-03T22:21:21.444Z,8.80
2023-01-03T22:23:48.946Z,9.93
2023-01-03T22:26:17.080Z,8.37
2023-01-03T22:28:45.801Z,7.93
2023-01-03T22:31:17.503Z,9.27
2023-01-03T22:33:48.616Z,10.00
2023-01-03T22:36:16.537Z,9.30
2023-01-03T22:38:44.739Z,9.27
2023-01-03T22:41:13.450Z,8.83
2023-01-03T22:43:40.986Z,8.60
2023-01-03T22:46:09.573Z,8.43
2023-01-03T22:48:37.610Z,9.10
2023-01-03T22:51:06.132Z,8.57
2023-01-03T22:53:34.299Z,10.80
2023-01-03T22:56:01.828Z,9.43
2023-01-03T22:58:29.404Z,8.93
2023-01-03T23:00:56.952Z,9.13
2023-01-03T23:03:24.416Z,8.97
2023-01-03T23:05:51.939Z,8.17
2023-01-03T23:08:19.378Z,8.50
2023-01-03T23:10:46.867Z,8.53
2023-01-03T23:13:14.505Z,9.20
2023-01-03T23:15:42.002Z,9.30
2023-01-03T23:18:09.450Z,8.33
2023-01-03T23:20:49.125Z,9.63
2023-01-03T23:23:16.632Z,10.37
2023-01-03T23:25:44.253Z,8.50
2023-01-03T23:28:11.815Z,9.63
2023-01-03T23:30:39.479Z,9.77
2023-01-03T23:33:07.023Z,10.07
2023-01-03T23:35:34.544Z,8.37
2023-01-03T23:38:03.153Z,10.83
2023-01-03T23:40:30.643Z,9.87
2023-01-03T23:42:58.567Z,8.83
2023-01-03T23:45:26.075Z,8.80
2023-01-03T23:47:53.633Z,9.90
2023-01-03T23:50:21.109Z,9.37
2023-01-03T23:52:48.657Z,9.03
2023-01-03T23:55:16.121Z,8.90
2023-01-03T23:57:43.591Z,9.00
